Time;durP1;ratioP1;P1;durP2;ratioP2;P2;SDS_P1;SDS_P2;PMS_P1;PMS_P2;Temp;Humidity;BMP_temperature;BMP_pressure;BME280_temperature;BME280_humidity;BME280_pressure;Samples;Min_cycle;Max_cycle;Signal;HPM_P1;HPM_P2
2023/03/24 00:02:15;;;;;;;;;;;;;;;6.52;81.75;97280.52;110076;1244;68621;-69
2023/03/24 00:04:48;;;;;;;;;;;;;;;6.54;81.32;97279.18;110049;1243;68705;-70
2023/03/24 00:07:18;;;;;;;;;;;;;;;6.56;77.82;97276.84;109980;1244;59682;-69
2023/03/24 00:09:48;;;;;;;;;;;;;;;6.53;78.17;97271.83;110071;1244;59605;-68
2023/03/24 00:12:17;;;;;;;;;;;;;;;6.48;77.72;97270.73;110134;1244;71985;-68
2023/03/24 00:14:47;;;;;;;;;;;;;;;6.42;77.58;97265.85;110159;1244;69836;-70
2023/03/24 00:17:16;;;;;;;;;;;;;;;6.37;78.81;97268.92;110158;1243;69229;-69
2023/03/24 00:19:45;;;;;;;;;;;;;;;6.35;82.92;97270.27;110153;1244;59747;-68
2023/03/24 00:22:15;;;;;;;;;;;;;;;6.33;84.08;97269.32;110103;1241;59752;-70
2023/03/24 00:24:45;;;;;;;;;;;;;;;6.32;84.49;97269.21;110136;1243;70867;-71
2023/03/24 00:27:16;;;;;;;;;;;;;;;6.33;84.51;97272.98;110332;1244;69869;-69
2023/03/24 00:29:46;;;;;;;;;;;;;;;6.34;85.04;97277.77;110071;1244;69404;-69
2023/03/24 00:32:16;;;;;;;;;;;;;;;6.34;85.18;97278.13;109925;1245;59687;-70
2023/03/24 00:34:48;;;;;;;;;;;;;;;6.34;85.00;97281.09;109815;1245;59663;-69
2023/03/24 00:37:17;;;;;;;;;;;;;;;6.33;84.94;97278.52;110129;1241;71485;-69
2023/03/24 00:39:48;;;;;;;;;;;;;;;6.31;83.66;97276.58;110181;1243;69176;-69
2023/03/24 00:42:19;;;;;;;;;;;;;;;6.24;82.33;97273.84;110307;1244;69291;-69
2023/03/24 00:44:52;;;;;;;;;;;;;;;6.13;82.22;97273.62;111107;1241;59609;-69
2023/03/24 00:47:24;;;;;;;;;;;;;;;6.03;85.48;97268.13;110325;1244;59644;-69
2023/03/24 00:49:56;;;;;;;;;;;;;;;6.00;85.77;97266.91;110130;1245;71204;-68
2023/03/24 00:52:32;;;;;;;;;;;;;;;5.98;85.93;97269.45;110147;1245;69141;-69
2023/03/24 00:55:04;;;;;;;;;;;;;;;5.95;84.92;97268.21;110087;1244;69300;-68
2023/03/24 00:57:34;;;;;;;;;;;;;;;5.94;83.09;97267.61;110122;1244;59675;-68
2023/03/24 01:00:12;;;;;;;;;;;;;;;5.91;86.96;97265.14;110123;1244;59646;-68
2023/03/24 01:02:42;;;;;;;;;;;;;;;5.87;86.23;97262.04;110180;1244;71494;-68
2023/03/24 01:05:13;;;;;;;;;;;;;;;5.84;87.96;97266.19;110192;1244;69305;-69
2023/03/24 01:07:43;;;;;;;;;;;;;;;5.84;88.27;97267.23;110148;1244;69225;-69
2023/03/24 01:10:13;;;;;;;;;;;;;;;5.83;88.11;97266.95;110190;1242;59745;-69
2023/03/24 01:12:43;;;;;;;;;;;;;;;5.84;88.71;97265.70;110181;1244;59730;-68
2023/03/24 01:15:18;;;;;;;;;;;;;;;5.84;87.45;97266.38;110132;1241;71996;-68
2023/03/24 01:17:48;;;;;;;;;;;;;;;5.82;86.25;97262.52;110178;1244;70250;-68
2023/03/24 01:20:18;;;;;;;;;;;;;;;5.82;84.99;97265.30;110202;1241;68517;-68
2023/03/24 01:22:49;;;;;;;;;;;;;;;5.82;84.65;97263.56;110176;1242;59783;-68
2023/03/24 01:25:20;;;;;;;;;;;;;;;5.82;85.63;97265.46;110093;1243;59701;-69
2023/03/24 01:27:52;;;;;;;;;;;;;;;5.82;86.09;97269.79;110092;1244;71059;-68
2023/03/24 01:30:23;;;;;;;;;;;;;;;5.82;84.54;97270.98;110189;1244;69145;-69
2023/03/24 01:32:52;;;;;;;;;;;;;;;5.84;86.07;97270.88;110183;1241;68300;-70
2023/03/24 01:35:22;;;;;;;;;;;;;;;5.85;86.42;97264.08;110184;1242;59743;-68
2023/03/24 01:37:53;;;;;;;;;;;;;;;5.86;86.08;97256.91;110104;1243;59772;-69
2023/03/24 01:40:25;;;;;;;;;;;;;;;5.88;85.95;97257.34;109843;1245;71422;-68
2023/03/24 01:42:55;;;;;;;;;;;;;;;5.90;85.64;97256.54;110146;1245;68507;-68
2023/03/24 01:45:35;;;;;;;;;;;;;;;5.89;86.00;97253.64;110043;1244;69207;-68
2023/03/24 01:48:11;;;;;;;;;;;;;;;5.88;86.08;97250.79;110035;1244;59713;-68
2023/03/24 01:50:45;;;;;;;;;;;;;;;5.85;86.85;97253.51;109954;1244;59639;-68
2023/03/24 01:53:17;;;;;;;;;;;;;;;5.80;87.17;97252.27;110032;1243;70491;-68
2023/03/24 01:55:48;;;;;;;;;;;;;;;5.75;87.49;97251.54;109771;1245;69263;-68
2023/03/24 01:58:21;;;;;;;;;;;;;;;5.71;87.56;97253.30;110052;1244;69335;-68
2023/03/24 02:01:08;;;;;;;;;;;;;;;5.67;86.15;97248.85;109997;1244;59750;-68
2023/03/24 02:04:02;;;;;;;;;;;;;;;5.62;83.87;97248.59;109973;1244;59679;-68
2023/03/24 02:06:33;;;;;;;;;;;;;;;5.57;87.00;97251.30;110147;1244;71373;-68
2023/03/24 02:09:04;;;;;;;;;;;;;;;5.51;88.84;97252.46;110129;1244;69343;-68
2023/03/24 02:11:35;;;;;;;;;;;;;;;5.48;89.34;97261.32;109980;1244;68394;-68
2023/03/24 02:14:07;;;;;;;;;;;;;;;5.43;90.13;97261.08;110163;1241;59699;-69
2023/03/24 02:16:38;;;;;;;;;;;;;;;5.38;90.01;97258.91;110182;1244;59750;-68
2023/03/24 02:19:36;;;;;;;;;;;;;;;5.34;90.35;97268.98;109965;1243;71249;-69
2023/03/24 02:22:15;;;;;;;;;;;;;;;5.30;84.64;97265.56;110047;1245;69177;-69
2023/03/24 02:24:53;;;;;;;;;;;;;;;5.27;86.61;97264.66;110096;1244;68706;-69
2023/03/24 02:27:41;;;;;;;;;;;;;;;5.23;87.62;97271.46;110209;1244;59773;-69
2023/03/24 02:30:22;;;;;;;;;;;;;;;5.15;89.88;97267.76;109965;1244;59763;-68
2023/03/24 02:33:12;;;;;;;;;;;;;;;5.08;91.24;97271.38;110163;1241;70550;-68
2023/03/24 02:35:47;;;;;;;;;;;;;;;5.03;91.60;97269.93;110119;1244;69064;-68
2023/03/24 02:38:34;;;;;;;;;;;;;;;4.99;91.58;97269.27;109885;1244;67684;-68
2023/03/24 02:41:29;;;;;;;;;;;;;;;4.96;91.11;97273.26;109987;1243;59668;-68
2023/03/24 02:43:58;;;;;;;;;;;;;;;4.91;90.93;97268.48;110044;1244;59702;-68
2023/03/24 02:46:40;;;;;;;;;;;;;;;4.88;91.33;97275.56;110166;1245;71400;-68
2023/03/24 02:49:33;;;;;;;;;;;;;;;4.84;92.02;97279.02;110164;1244;68543;-68
2023/03/24 02:52:12;;;;;;;;;;;;;;;4.79;91.30;97281.89;109909;1242;69563;-68
2023/03/24 02:54:47;;;;;;;;;;;;;;;4.74;91.94;97284.73;110126;1241;59833;-68
2023/03/24 02:57:25;;;;;;;;;;;;;;;4.70;92.55;97286.32;110142;1242;59760;-68
2023/03/24 03:00:21;;;;;;;;;;;;;;;4.64;91.48;97283.20;110120;1243;70850;-68
2023/03/24 03:03:20;;;;;;;;;;;;;;;4.57;90.81;97292.14;110170;1244;69177;-69
2023/03/24 03:05:57;;;;;;;;;;;;;;;4.51;91.84;97294.69;110054;1244;68571;-69
2023/03/24 03:08:29;;;;;;;;;;;;;;;4.47;93.69;97295.08;110321;1244;59763;-70
2023/03/24 03:11:01;;;;;;;;;;;;;;;4.41;94.29;97291.27;110229;1244;59679;-70
2023/03/24 03:13:35;;;;;;;;;;;;;;;4.34;95.32;97286.09;110146;1244;70596;-70
2023/03/24 03:16:13;;;;;;;;;;;;;;;4.27;94.17;97290.71;110081;1244;68473;-68
2023/03/24 03:18:49;;;;;;;;;;;;;;;4.22;94.21;97289.42;110036;1245;69168;-69
2023/03/24 03:21:22;;;;;;;;;;;;;;;4.18;93.78;97287.08;110157;1242;59680;-68
2023/03/24 03:24:01;;;;;;;;;;;;;;;4.13;94.61;97286.27;110143;1241;59714;-69
2023/03/24 03:26:31;;;;;;;;;;;;;;;4.07;95.46;97293.92;110143;1243;70762;-68
2023/03/24 03:29:08;;;;;;;;;;;;;;;4.02;94.93;97292.28;110144;1244;69553;-67
2023/03/24 03:31:42;;;;;;;;;;;;;;;3.97;90.68;97294.77;110120;1243;69126;-68
2023/03/24 03:34:21;;;;;;;;;;;;;;;3.93;86.90;97298.09;109891;1243;59795;-68
2023/03/24 03:37:02;;;;;;;;;;;;;;;3.87;86.90;97293.39;110168;1244;59670;-68
2023/03/24 03:39:34;;;;;;;;;;;;;;;3.80;87.66;97293.35;110113;1241;71740;-68
2023/03/24 03:42:05;;;;;;;;;;;;;;;3.77;94.56;97295.05;110067;1244;68320;-68
2023/03/24 03:44:35;;;;;;;;;;;;;;;3.72;96.06;97293.07;109908;1244;68230;-68
2023/03/24 03:47:05;;;;;;;;;;;;;;;3.65;96.83;97289.26;110014;1245;59722;-69
2023/03/24 03:49:40;;;;;;;;;;;;;;;3.59;96.28;97288.34;110056;1244;59701;-69
2023/03/24 03:52:10;;;;;;;;;;;;;;;3.53;94.95;97290.50;110060;1244;71415;-69
2023/03/24 03:54:41;;;;;;;;;;;;;;;3.49;95.39;97287.73;110191;1241;68673;-68
2023/03/24 03:57:11;;;;;;;;;;;;;;;3.48;97.77;97287.11;110193;1244;69893;-68
2023/03/24 04:00:14;;;;;;;;;;;;;;;3.46;97.81;97285.46;110000;1244;59889;-69
2023/03/24 04:02:55;;;;;;;;;;;;;;;3.44;96.28;97290.73;110085;1244;59717;-69
2023/03/24 04:05:31;;;;;;;;;;;;;;;3.42;90.66;97290.33;110148;1244;71370;-69
2023/03/24 04:08:20;;;;;;;;;;;;;;;3.40;88.09;97294.02;110050;1244;69307;-68
2023/03/24 04:10:52;;;;;;;;;;;;;;;3.38;89.56;97296.70;110087;1244;70722;-68
2023/03/24 04:13:25;;;;;;;;;;;;;;;3.36;90.26;97296.42;110047;1241;59715;-68
2023/03/24 04:16:40;;;;;;;;;;;;;;;3.35;92.45;97296.52;110134;1243;59646;-68
2023/03/24 04:19:24;;;;;;;;;;;;;;;3.45;100.00;97293.94;110080;1241;71982;-69
2023/03/24 04:21:57;;;;;;;;;;;;;;;3.49;100.00;97293.94;110218;1241;68312;-69
2023/03/24 04:24:50;;;;;;;;;;;;;;;3.50;100.00;97296.98;110180;1244;69258;-69
2023/03/24 04:27:30;;;;;;;;;;;;;;;3.49;99.87;97296.17;110132;1244;59670;-67
2023/03/24 04:30:13;;;;;;;;;;;;;;;3.46;99.65;97297.89;110154;1245;59714;-69
2023/03/24 04:32:48;;;;;;;;;;;;;;;3.44;99.88;97297.29;110181;1244;71396;-69
2023/03/24 04:35:39;;;;;;;;;;;;;;;3.44;100.00;97296.45;110163;1244;69581;-68
2023/03/24 04:38:24;;;;;;;;;;;;;;;3.44;100.00;97301.23;110145;1244;69302;-69
2023/03/24 04:41:25;;;;;;;;;;;;;;;3.45;100.00;97297.41;109983;1241;59729;-68
2023/03/24 04:44:05;;;;;;;;;;;;;;;3.46;97.51;97298.21;109775;1244;59688;-69
2023/03/24 04:46:41;;;;;;;;;;;;;;;3.49;93.96;97305.30;109852;1245;72046;-69
2023/03/24 04:49:18;;;;;;;;;;;;;;;3.51;93.50;97299.90;110128;1242;69524;-69
2023/03/24 04:51:48;;;;;;;;;;;;;;;3.54;96.70;97304.91;109957;1244;69324;-69
2023/03/24 04:54:25;;;;;;;;;;;;;;;3.60;98.69;97300.86;110131;1244;59760;-69
2023/03/24 04:57:00;;;;;;;;;;;;;;;3.68;96.60;97299.64;110135;1244;59677;-69
2023/03/24 04:59:33;;;;;;;;;;;;;;;3.76;94.27;97303.39;110127;1245;70579;-69
2023/03/24 05:02:04;;;;;;;;;;;;;;;3.84;94.13;97301.77;110138;1244;69247;-69
2023/03/24 05:04:49;;;;;;;;;;;;;;;3.96;94.07;97304.48;110216;1243;68529;-68
2023/03/24 05:07:24;;;;;;;;;;;;;;;4.07;93.08;97303.95;110168;1244;59693;-69
2023/03/24 05:09:57;;;;;;;;;;;;;;;4.23;95.55;97305.08;110145;1244;59681;-69
2023/03/24 05:12:26;;;;;;;;;;;;;;;4.37;96.07;97308.86;110151;1241;71340;-69
2023/03/24 05:15:12;;;;;;;;;;;;;;;4.56;95.31;97314.65;110138;1241;69242;-69
2023/03/24 05:17:41;;;;;;;;;;;;;;;4.77;94.53;97316.19;109918;1244;69097;-69
2023/03/24 05:20:10;;;;;;;;;;;;;;;4.98;93.40;97315.98;110105;1244;59687;-69
2023/03/24 05:22:42;;;;;;;;;;;;;;;5.18;92.37;97318.73;110023;1244;59679;-68
2023/03/24 05:25:11;;;;;;;;;;;;;;;5.36;91.98;97325.03;110030;1241;71410;-69
2023/03/24 05:27:40;;;;;;;;;;;;;;;5.67;92.23;97322.48;110145;1244;68495;-69
2023/03/24 05:30:22;;;;;;;;;;;;;;;5.95;89.58;97319.58;110135;1244;70102;-69
2023/03/24 05:32:54;;;;;;;;;;;;;;;6.13;87.91;97319.97;110103;1243;59744;-69
2023/03/24 05:35:23;;;;;;;;;;;;;;;6.37;88.66;97318.79;110188;1243;59676;-69
2023/03/24 05:37:54;;;;;;;;;;;;;;;6.68;89.47;97318.16;110131;1245;71978;-69
2023/03/24 05:40:23;;;;;;;;;;;;;;;7.08;88.12;97322.59;110155;1244;69903;-69
2023/03/24 05:43:02;;;;;;;;;;;;;;;7.39;83.11;97321.89;110112;1244;69318;-68
2023/03/24 05:45:33;;;;;;;;;;;;;;;7.57;79.43;97321.82;110115;1243;59683;-70
2023/03/24 05:48:02;;;;;;;;;;;;;;;7.75;78.78;97320.23;110028;1244;59682;-69
2023/03/24 05:50:50;;;;;;;;;;;;;;;8.05;79.71;97317.79;110169;1244;71925;-69
2023/03/24 05:53:19;;;;;;;;;;;;;;;8.36;78.37;97314.74;110122;1241;69784;-70
2023/03/24 05:56:17;;;;;;;;;;;;;;;8.51;75.17;97313.60;110051;1244;69901;-69
2023/03/24 05:59:07;;;;;;;;;;;;;;;8.72;74.62;97316.89;110124;1244;59669;-70
2023/03/24 06:01:58;;;;;;;;;;;;;;;9.20;77.52;97316.61;110211;1245;59765;-69
2023/03/24 06:04:33;;;;;;;;;;;;;;;9.66;79.33;97313.95;110554;1241;71825;-69
2023/03/24 06:07:07;;;;;;;;;;;;;;;9.95;73.70;97309.27;110249;1242;69845;-70
2023/03/24 06:09:41;;;;;;;;;;;;;;;10.23;71.61;97307.23;110223;1244;68780;-69
2023/03/24 06:12:12;;;;;;;;;;;;;;;10.64;73.23;97312.58;109994;1241;59811;-70
2023/03/24 06:14:49;;;;;;;;;;;;;;;10.87;67.36;97313.15;110166;1244;59698;-69
2023/03/24 06:17:20;;;;;;;;;;;;;;;11.11;68.06;97312.71;109988;1244;70872;-68
2023/03/24 06:19:51;;;;;;;;;;;;;;;11.47;69.09;97312.32;110112;1242;68844;-69
2023/03/24 06:22:39;;;;;;;;;;;;;;;11.86;64.59;97312.08;110119;1244;69676;-69
2023/03/24 06:25:12;;;;;;;;;;;;;;;12.13;61.41;97311.98;110135;1244;59712;-70
2023/03/24 06:27:46;;;;;;;;;;;;;;;12.37;60.52;97307.16;110063;1241;59757;-69
2023/03/24 06:30:19;;;;;;;;;;;;;;;12.67;58.96;97310.57;110116;1246;71932;-69
2023/03/24 06:32:49;;;;;;;;;;;;;;;12.68;56.39;97309.59;110041;1243;68545;-69
2023/03/24 06:35:18;;;;;;;;;;;;;;;13.03;57.68;97312.16;110078;1244;68297;-69
2023/03/24 06:37:53;;;;;;;;;;;;;;;13.19;54.83;97314.10;110131;1241;59763;-69
2023/03/24 06:40:22;;;;;;;;;;;;;;;13.30;55.07;97315.94;110094;1241;59664;-69
2023/03/24 06:42:56;;;;;;;;;;;;;;;13.76;57.00;97311.71;110163;1243;71996;-70
2023/03/24 06:45:25;;;;;;;;;;;;;;;13.76;52.69;97313.29;110172;1241;68631;-68
2023/03/24 06:47:56;;;;;;;;;;;;;;;13.78;51.82;97309.40;110128;1242;69291;-68
2023/03/24 06:50:31;;;;;;;;;;;;;;;14.07;53.48;97310.39;110158;1244;59697;-68
2023/03/24 06:53:02;;;;;;;;;;;;;;;14.16;51.66;97308.82;110128;1244;59762;-69
2023/03/24 06:55:32;;;;;;;;;;;;;;;14.25;51.54;97308.25;110149;1244;71628;-70
2023/03/24 06:58:01;;;;;;;;;;;;;;;14.27;51.13;97308.19;110072;1244;68590;-70
2023/03/24 07:01:02;;;;;;;;;;;;;;;14.26;50.10;97310.80;109860;1247;69294;-69
2023/03/24 07:03:37;;;;;;;;;;;;;;;14.56;49.94;97310.91;110144;1242;59704;-69
2023/03/24 07:06:21;;;;;;;;;;;;;;;14.79;50.40;97309.70;110132;1245;59669;-69
2023/03/24 07:09:00;;;;;;;;;;;;;;;15.10;49.55;97313.33;110109;1241;71249;-69
2023/03/24 07:11:30;;;;;;;;;;;;;;;15.36;48.94;97312.98;110075;1244;69240;-69
2023/03/24 07:14:00;;;;;;;;;;;;;;;15.78;48.83;97314.33;110137;1244;67509;-69
2023/03/24 07:16:30;;;;;;;;;;;;;;;16.26;47.26;97316.14;110061;1244;59697;-69
2023/03/24 07:19:17;;;;;;;;;;;;;;;16.31;45.74;97314.70;110115;1244;59672;-69
2023/03/24 07:21:50;;;;;;;;;;;;;;;15.61;45.53;97314.31;110145;1241;70677;-70
2023/03/24 07:24:22;;;;;;;;;;;;;;;15.52;45.70;97316.73;109975;1242;67610;-69
2023/03/24 07:27:01;;;;;;;;;;;;;;;15.72;46.21;97317.66;110072;1244;69629;-68
2023/03/24 07:29:30;;;;;;;;;;;;;;;15.85;46.24;97320.50;110092;1244;59687;-69
2023/03/24 07:32:21;;;;;;;;;;;;;;;16.05;46.28;97317.68;110123;1244;59631;-69
2023/03/24 07:34:51;;;;;;;;;;;;;;;16.19;45.91;97318.42;110141;1243;70415;-70
2023/03/24 07:37:20;;;;;;;;;;;;;;;16.36;46.13;97312.10;110093;1244;68808;-69
2023/03/24 07:39:49;;;;;;;;;;;;;;;16.56;46.08;97311.98;110131;1244;69888;-70
2023/03/24 07:42:19;;;;;;;;;;;;;;;16.97;45.86;97312.48;110085;1241;59712;-69
2023/03/24 07:45:11;;;;;;;;;;;;;;;17.27;44.12;97308.98;110109;1244;59631;-68
2023/03/24 07:47:42;;;;;;;;;;;;;;;17.15;43.46;97305.98;110107;1245;71852;-69
2023/03/24 07:50:12;;;;;;;;;;;;;;;17.40;43.46;97303.79;110120;1244;69794;-70
2023/03/24 07:52:42;;;;;;;;;;;;;;;17.70;42.93;97303.89;110144;1244;68529;-70
2023/03/24 07:55:12;;;;;;;;;;;;;;;18.18;43.97;97298.88;110141;1243;59696;-69
2023/03/24 07:58:09;;;;;;;;;;;;;;;18.73;42.47;97301.67;110109;1244;59658;-70
2023/03/24 08:00:41;;;;;;;;;;;;;;;18.97;40.73;97299.27;110134;1241;71668;-71
2023/03/24 08:03:26;;;;;;;;;;;;;;;19.29;40.00;97303.13;110077;1244;69732;-70
2023/03/24 08:06:16;;;;;;;;;;;;;;;19.52;39.10;97301.30;109868;1249;69796;-71
2023/03/24 08:08:51;;;;;;;;;;;;;;;19.23;39.15;97300.46;110229;1245;59750;-69
2023/03/24 08:11:20;;;;;;;;;;;;;;;18.92;39.58;97296.06;110253;1244;59700;-69
2023/03/24 08:13:49;;;;;;;;;;;;;;;19.06;39.19;97294.91;110185;1244;71385;-69
2023/03/24 08:16:18;;;;;;;;;;;;;;;18.94;39.74;97297.65;110249;1244;69180;-69
2023/03/24 08:18:49;;;;;;;;;;;;;;;19.06;40.61;97293.48;110174;1245;70206;-69
2023/03/24 08:21:18;;;;;;;;;;;;;;;20.05;39.65;97294.27;110068;1242;59779;-69
2023/03/24 08:23:47;;;;;;;;;;;;;;;20.22;37.49;97294.09;110097;1243;59650;-70
2023/03/24 08:26:16;;;;;;;;;;;;;;;20.45;37.80;97291.13;110084;1244;71349;-69
2023/03/24 08:28:45;;;;;;;;;;;;;;;20.62;36.91;97286.58;110160;1243;69802;-69
2023/03/24 08:31:14;;;;;;;;;;;;;;;20.89;36.45;97291.24;110185;1244;69436;-68
2023/03/24 08:33:44;;;;;;;;;;;;;;;21.01;36.26;97286.16;110103;1243;59745;-69
2023/03/24 08:36:12;;;;;;;;;;;;;;;21.58;36.81;97288.84;110105;1244;59690;-70
2023/03/24 08:38:41;;;;;;;;;;;;;;;21.66;34.84;97284.30;110159;1243;72249;-70
2023/03/24 08:41:10;;;;;;;;;;;;;;;21.43;34.85;97283.24;110043;1244;69644;-69
2023/03/24 08:43:39;;;;;;;;;;;;;;;21.10;35.53;97279.59;110102;1245;69078;-69
2023/03/24 08:46:08;;;;;;;;;;;;;;;21.04;35.38;97277.79;110029;1244;60071;-69
2023/03/24 08:48:42;;;;;;;;;;;;;;;21.25;35.42;97275.63;110076;1245;59645;-69
2023/03/24 08:51:12;;;;;;;;;;;;;;;21.72;34.67;97273.22;110064;1244;71391;-70
2023/03/24 08:53:41;;;;;;;;;;;;;;;21.86;34.55;97265.63;109897;1242;69062;-70
2023/03/24 08:56:10;;;;;;;;;;;;;;;22.02;33.69;97263.07;109889;1244;69628;-69
2023/03/24 08:58:39;;;;;;;;;;;;;;;21.81;33.91;97262.34;110098;1244;59656;-71
2023/03/24 09:01:08;;;;;;;;;;;;;;;21.73;33.96;97263.05;110287;1245;59716;-72
2023/03/24 09:03:38;;;;;;;;;;;;;;;22.18;33.78;97260.16;110220;1244;71323;-70
2023/03/24 09:06:07;;;;;;;;;;;;;;;21.88;33.71;97262.61;110257;1244;68673;-71
2023/03/24 09:08:36;;;;;;;;;;;;;;;21.65;33.94;97259.86;110233;1245;69362;-69
2023/03/24 09:11:06;;;;;;;;;;;;;;;21.60;34.34;97263.13;110164;1243;59668;-69
2023/03/24 09:13:35;;;;;;;;;;;;;;;21.53;34.61;97256.45;110143;1244;59636;-69
2023/03/24 09:16:04;;;;;;;;;;;;;;;21.65;35.15;97252.03;110032;1245;71978;-70
2023/03/24 09:18:33;;;;;;;;;;;;;;;22.37;33.87;97249.23;110102;1244;68645;-70
2023/03/24 09:21:03;;;;;;;;;;;;;;;22.84;33.55;97247.40;110065;1242;69213;-69
2023/03/24 09:23:31;;;;;;;;;;;;;;;23.21;31.93;97243.77;110074;1245;59674;-70
2023/03/24 09:26:00;;;;;;;;;;;;;;;23.33;31.70;97243.27;110120;1245;59650;-69
2023/03/24 09:28:30;;;;;;;;;;;;;;;23.66;31.98;97241.38;110130;1244;71428;-69
2023/03/24 09:31:00;;;;;;;;;;;;;;;24.45;31.72;97235.84;110127;1248;69301;-70
2023/03/24 09:33:29;;;;;;;;;;;;;;;24.17;30.50;97236.14;110054;1243;68334;-70
2023/03/24 09:36:00;;;;;;;;;;;;;;;24.42;30.80;97236.56;110121;1245;59753;-69
2023/03/24 09:38:29;;;;;;;;;;;;;;;24.27;29.82;97231.48;110110;1245;60142;-70
2023/03/24 09:41:02;;;;;;;;;;;;;;;23.46;30.83;97229.66;110077;1244;71480;-69
2023/03/24 09:43:35;;;;;;;;;;;;;;;24.21;29.93;97227.48;110069;1242;69644;-69
2023/03/24 09:46:09;;;;;;;;;;;;;;;25.05;29.41;97226.72;110079;1245;69789;-69
2023/03/24 09:48:41;;;;;;;;;;;;;;;25.38;29.23;97223.30;110045;1245;59668;-69
2023/03/24 09:51:22;;;;;;;;;;;;;;;26.07;28.40;97217.39;110116;1244;59663;-69
2023/03/24 09:53:51;;;;;;;;;;;;;;;26.24;27.57;97210.14;110048;1244;72003;-70
2023/03/24 09:56:21;;;;;;;;;;;;;;;26.86;27.25;97209.98;110136;1245;69129;-70
2023/03/24 09:59:09;;;;;;;;;;;;;;;26.34;26.23;97204.77;110080;1245;69900;-70
2023/03/24 10:01:38;;;;;;;;;;;;;;;25.88;27.02;97204.11;110043;1244;59748;-70
2023/03/24 10:04:14;;;;;;;;;;;;;;;25.95;27.27;97202.94;110086;1244;59725;-70
2023/03/24 10:06:43;;;;;;;;;;;;;;;26.91;26.66;97200.09;110075;1245;71470;-71
2023/03/24 10:09:11;;;;;;;;;;;;;;;27.25;26.05;97204.84;110204;1245;69275;-69
2023/03/24 10:11:45;;;;;;;;;;;;;;;27.58;26.02;97199.91;110059;1245;69941;-71
2023/03/24 10:14:17;;;;;;;;;;;;;;;27.31;25.40;97201.08;110224;1244;59756;-69
2023/03/24 10:16:53;;;;;;;;;;;;;;;26.91;25.72;97193.84;110081;1245;59815;-69
2023/03/24 10:19:38;;;;;;;;;;;;;;;25.92;26.76;97193.54;110110;1244;70660;-70
2023/03/24 10:22:26;;;;;;;;;;;;;;;24.71;27.85;97193.65;110131;1245;69830;-70
2023/03/24 10:25:14;;;;;;;;;;;;;;;24.06;28.74;97191.98;110085;1245;69793;-70
2023/03/24 10:27:50;;;;;;;;;;;;;;;24.51;28.68;97189.96;110182;1245;59763;-70
2023/03/24 10:30:25;;;;;;;;;;;;;;;24.03;28.47;97183.31;110181;1243;59646;-70
2023/03/24 10:32:54;;;;;;;;;;;;;;;23.39;29.46;97176.53;110100;1245;72095;-69
2023/03/24 10:35:29;;;;;;;;;;;;;;;24.00;28.77;97185.31;109737;1245;547547;-70
2023/03/24 10:38:00;;;;;;;;;;;;;;;23.93;28.73;97182.17;110102;1245;69653;-70
2023/03/24 10:40:30;;;;;;;;;;;;;;;23.95;28.54;97181.31;110117;1245;59696;-70
2023/03/24 10:43:02;;;;;;;;;;;;;;;24.04;28.19;97185.50;110064;1245;59659;-69
2023/03/24 10:45:42;;;;;;;;;;;;;;;24.48;28.36;97180.94;110109;1244;70542;-69
2023/03/24 10:48:13;;;;;;;;;;;;;;;24.80;28.43;97178.84;110151;1245;69164;-70
2023/03/24 10:50:43;;;;;;;;;;;;;;;25.13;27.67;97177.73;110126;1244;69248;-70
2023/03/24 10:53:18;;;;;;;;;;;;;;;25.03;27.14;97173.93;110149;1245;59705;-70
2023/03/24 10:55:47;;;;;;;;;;;;;;;25.23;27.40;97172.45;110118;1245;59704;-70
2023/03/24 10:58:19;;;;;;;;;;;;;;;25.72;27.02;97165.12;110133;1245;70533;-70
2023/03/24 11:00:48;;;;;;;;;;;;;;;25.94;26.35;97161.02;110122;1245;68386;-69
2023/03/24 11:03:25;;;;;;;;;;;;;;;26.08;26.42;97155.04;110113;1244;69278;-70
2023/03/24 11:05:59;;;;;;;;;;;;;;;26.50;25.10;97152.98;110099;1245;59679;-70
2023/03/24 11:08:37;;;;;;;;;;;;;;;25.70;25.84;97156.23;109902;1246;59782;-70
2023/03/24 11:11:14;;;;;;;;;;;;;;;26.76;25.43;97146.08;110122;1244;71995;-70
2023/03/24 11:13:52;;;;;;;;;;;;;;;26.61;24.89;97137.92;110085;1245;69234;-70
2023/03/24 11:16:25;;;;;;;;;;;;;;;26.15;25.44;97136.66;110026;1244;67332;-70
2023/03/24 11:18:56;;;;;;;;;;;;;;;25.80;25.28;97126.40;110247;1244;59723;-70
2023/03/24 11:21:26;;;;;;;;;;;;;;;26.03;25.01;97122.83;110059;1245;59804;-70
2023/03/24 11:24:00;;;;;;;;;;;;;;;26.53;24.80;97118.46;110118;1245;70656;-69
2023/03/24 11:26:37;;;;;;;;;;;;;;;26.50;24.76;97114.48;110068;1244;69821;-69
2023/03/24 11:29:08;;;;;;;;;;;;;;;27.30;24.73;97107.14;110081;1244;69260;-70
2023/03/24 11:31:38;;;;;;;;;;;;;;;28.34;23.86;97109.13;110080;1244;59693;-69
2023/03/24 11:34:19;;;;;;;;;;;;;;;28.53;23.28;97103.70;110099;1242;59670;-68
2023/03/24 11:36:59;;;;;;;;;;;;;;;28.13;22.94;97101.99;110204;1244;71990;-70
2023/03/24 11:39:30;;;;;;;;;;;;;;;28.39;22.99;97099.94;110264;1245;70061;-72
2023/03/24 11:42:00;;;;;;;;;;;;;;;29.00;22.41;97095.30;110041;1245;69301;-71
2023/03/24 11:44:41;;;;;;;;;;;;;;;28.42;22.49;97085.78;110210;1245;59684;-70
2023/03/24 11:47:29;;;;;;;;;;;;;;;28.03;22.65;97085.05;110078;1244;59690;-70
2023/03/24 11:50:10;;;;;;;;;;;;;;;27.62;25.15;97078.64;110119;1245;71310;-70
2023/03/24 11:52:48;;;;;;;;;;;;;;;27.28;24.84;97075.48;110135;1245;69078;-70
2023/03/24 11:55:22;;;;;;;;;;;;;;;27.34;24.43;97071.30;110297;1244;68380;-71
2023/03/24 11:57:55;;;;;;;;;;;;;;;27.33;24.29;97068.98;110151;1244;59748;-69
2023/03/24 12:00:26;;;;;;;;;;;;;;;27.53;25.00;97063.35;110180;1242;59721;-70
2023/03/24 12:03:15;;;;;;;;;;;;;;;28.33;24.83;97061.77;110104;1245;71962;-71
2023/03/24 12:05:49;;;;;;;;;;;;;;;28.25;23.84;97061.75;110134;1245;68551;-70
2023/03/24 12:08:24;;;;;;;;;;;;;;;27.43;24.45;97057.72;109725;1244;69261;-70
2023/03/24 12:10:52;;;;;;;;;;;;;;;27.13;24.48;97053.88;110029;1245;59715;-69
2023/03/24 12:13:38;;;;;;;;;;;;;;;27.33;25.09;97049.96;110106;1245;59693;-70
2023/03/24 12:16:13;;;;;;;;;;;;;;;26.28;24.85;97052.41;110071;1245;71478;-70
2023/03/24 12:18:50;;;;;;;;;;;;;;;26.44;24.63;97052.11;110108;1244;69301;-71
2023/03/24 12:21:37;;;;;;;;;;;;;;;26.71;24.82;97046.46;110062;1244;69107;-70
2023/03/24 12:24:24;;;;;;;;;;;;;;;27.22;24.48;97044.15;110064;1244;59777;-70
2023/03/24 12:26:57;;;;;;;;;;;;;;;27.94;23.89;97045.48;110119;1245;59687;-71
2023/03/24 12:29:36;;;;;;;;;;;;;;;27.97;23.12;97035.30;110231;1244;71327;-70
2023/03/24 12:32:14;;;;;;;;;;;;;;;28.19;22.83;97034.70;110096;1244;69843;-74
2023/03/24 12:35:02;;;;;;;;;;;;;;;27.62;22.92;97031.39;110077;1245;69854;-71
2023/03/24 12:37:31;;;;;;;;;;;;;;;27.98;23.18;97025.52;110287;1245;59681;-70
2023/03/24 12:40:24;;;;;;;;;;;;;;;27.87;23.19;97020.55;110057;1245;59684;-70
2023/03/24 12:43:02;;;;;;;;;;;;;;;28.03;22.80;97015.42;109836;1246;70830;-70
2023/03/24 12:45:31;;;;;;;;;;;;;;;27.89;22.29;97015.08;110103;1244;68106;-71
2023/03/24 12:48:05;;;;;;;;;;;;;;;28.03;23.18;97009.98;109885;1245;69787;-70
2023/03/24 12:50:53;;;;;;;;;;;;;;;28.58;23.06;97005.88;110120;1245;59706;-71
2023/03/24 12:53:30;;;;;;;;;;;;;;;29.05;22.29;97000.90;110107;1244;59636;-71
2023/03/24 12:56:13;;;;;;;;;;;;;;;28.42;22.02;96998.84;110110;1244;70655;-70
2023/03/24 12:58:45;;;;;;;;;;;;;;;29.23;22.26;96994.86;110123;1245;69228;-71
2023/03/24 13:01:36;;;;;;;;;;;;;;;29.69;21.28;96987.02;110077;1245;70190;-70
2023/03/24 13:04:08;;;;;;;;;;;;;;;30.10;21.23;96985.51;110071;1245;59750;-70
2023/03/24 13:06:47;;;;;;;;;;;;;;;29.95;20.19;96984.54;110117;1245;59671;-70
2023/03/24 13:09:26;;;;;;;;;;;;;;;29.06;20.83;96976.12;110118;1245;71318;-71
2023/03/24 13:12:01;;;;;;;;;;;;;;;29.17;20.91;96972.52;110092;1245;68493;-70
2023/03/24 13:14:37;;;;;;;;;;;;;;;28.98;21.49;96972.06;110123;1245;69819;-70
2023/03/24 13:17:13;;;;;;;;;;;;;;;28.65;21.68;96971.76;110124;1242;59767;-70
2023/03/24 13:19:42;;;;;;;;;;;;;;;28.89;21.91;96968.67;110132;1244;59687;-71
2023/03/24 13:22:14;;;;;;;;;;;;;;;28.36;21.54;96967.98;110115;1245;70633;-71